Time;durP1;ratioP1;P1;durP2;ratioP2;P2;SDS_P1;SDS_P2;PMS_P1;PMS_P2;Temp;Humidity;BMP_temperature;BMP_pressure;BME280_temperature;BME280_humidity;BME280_pressure;Samples;Min_cycle;Max_cycle;Signal;HPM_P1;HPM_P2
2023/06/27 00:00:09;;;;;;;8.88;2.03;;;;;;;15.35;84.28;101182.75;6284631;22;20008;-90
2023/06/27 00:02:34;;;;;;;10.70;2.17;;;;;;;15.32;84.68;101183.81;6180961;22;20134;-91
2023/06/27 00:05:00;;;;;;;12.57;1.90;;;;;;;15.41;85.05;101178.00;6180923;23;20431;-90
2023/06/27 00:07:28;;;;;;;4.72;1.60;;;;;;;15.44;84.68;101181.34;6181092;23;20028;-90
2023/06/27 00:09:54;;;;;;;7.45;1.67;;;;;;;15.36;84.94;101174.00;6181083;22;20012;-92
2023/06/27 00:12:21;;;;;;;10.05;2.25;;;;;;;15.33;85.17;101169.84;6180885;22;20032;-89
2023/06/27 00:14:47;;;;;;;16.10;3.60;;;;;;;15.31;85.20;101178.69;6284728;22;20012;-88
2023/06/27 00:17:13;;;;;;;9.60;2.20;;;;;;;15.27;85.29;101170.28;6179885;22;20454;-88
2023/06/27 00:19:39;;;;;;;9.60;2.28;;;;;;;15.34;85.13;101171.53;6181434;22;20006;-90
2023/06/27 00:22:09;;;;;;;10.32;1.92;;;;;;;15.29;85.48;101172.75;6285065;22;20005;-90
2023/06/27 00:24:35;;;;;;;13.38;3.28;;;;;;;15.30;85.79;101171.84;6181516;22;20516;-89
2023/06/27 00:27:00;;;;;;;8.18;1.80;;;;;;;15.29;85.89;101170.16;6181036;22;20431;-90
2023/06/27 00:29:27;;;;;;;5.70;1.77;;;;;;;15.28;85.87;101169.31;6180967;22;20011;-90
2023/06/27 00:31:52;;;;;;;9.70;1.92;;;;;;;15.27;86.50;101169.44;6180553;22;20005;-90
2023/06/27 00:34:17;;;;;;;7.47;1.80;;;;;;;15.23;86.68;101162.75;6180506;22;20080;-90
2023/06/27 00:36:43;;;;;;;11.60;2.28;;;;;;;15.23;86.65;101166.19;6180850;22;20004;-89
2023/06/27 00:39:08;;;;;;;6.97;1.73;;;;;;;15.20;86.98;101169.00;6180188;22;20009;-89
2023/06/27 00:41:34;;;;;;;11.48;2.65;;;;;;;15.19;86.98;101162.13;6180726;22;20043;-89
2023/06/27 00:43:59;;;;;;;9.35;1.92;;;;;;;15.21;87.50;101160.25;6180823;22;20028;-89
2023/06/27 00:46:36;;;;;;;6.28;1.70;;;;;;;15.18;87.51;101160.47;6179772;22;20001;-90
2023/06/27 00:49:02;;;;;;;11.38;2.33;;;;;;;15.05;88.71;101168.22;6284105;22;20012;-90
2023/06/27 00:51:27;;;;;;;15.25;3.47;;;;;;;15.03;88.72;101172.69;6180690;22;20029;-90
2023/06/27 00:53:53;;;;;;;13.95;2.10;;;;;;;14.98;89.35;101167.78;6284134;22;20046;-91
2023/06/27 00:56:18;;;;;;;10.52;2.63;;;;;;;15.07;89.11;101168.13;6180244;22;20009;-90
2023/06/27 00:58:45;;;;;;;11.38;2.67;;;;;;;15.06;89.26;101171.66;6284159;22;20070;-89
2023/06/27 01:01:10;;;;;;;10.23;2.55;;;;;;;15.05;88.84;101164.81;6180448;22;20005;-88
2023/06/27 01:03:36;;;;;;;8.82;2.30;;;;;;;15.09;89.53;101171.44;6180407;23;20004;-88
2023/06/27 01:06:10;;;;;;;10.40;1.85;;;;;;;15.09;89.86;101161.06;6180658;22;20074;-91
2023/06/27 01:08:44;;;;;;;7.05;2.00;;;;;;;15.12;90.63;101158.28;6283473;22;20007;-90
2023/06/27 01:11:17;;;;;;;6.28;1.80;;;;;;;15.10;90.52;101162.75;6180648;22;19998;-90
2023/06/27 01:13:52;;;;;;;10.20;1.70;;;;;;;15.11;91.11;101164.38;6283693;22;20012;-90
2023/06/27 01:16:27;;;;;;;9.15;2.30;;;;;;;14.94;91.88;101158.50;6180652;22;20004;-89
2023/06/27 01:18:54;;;;;;;6.88;2.10;;;;;;;14.95;92.28;101165.38;6180684;22;20009;-89
2023/06/27 01:21:20;;;;;;;10.23;2.35;;;;;;;14.98;92.28;101165.19;6180804;22;20024;-90
2023/06/27 01:23:58;;;;;;;8.13;2.10;;;;;;;14.94;92.60;101161.09;6283974;22;20005;-90
2023/06/27 01:26:24;;;;;;;10.52;1.77;;;;;;;14.93;92.46;101162.06;6180141;22;20006;-90
2023/06/27 01:28:50;;;;;;;5.95;2.10;;;;;;;14.95;92.48;101160.19;6180840;22;20008;-90
2023/06/27 01:31:27;;;;;;;7.28;1.83;;;;;;;15.10;91.79;101163.56;6180944;22;20012;-90
2023/06/27 01:34:09;;;;;;;7.53;2.28;;;;;;;15.06;91.35;101158.66;6181129;23;20005;-90
2023/06/27 01:36:46;;;;;;;4.25;1.70;;;;;;;14.94;92.06;101160.28;6181632;22;20058;-89
2023/06/27 01:39:46;;;;;;;11.27;2.33;;;;;;;14.89;92.01;101152.78;6181153;22;20008;-89
2023/06/27 01:42:23;;;;;;;10.30;2.22;;;;;;;14.84;92.59;101147.03;6285778;22;20009;-90
2023/06/27 01:44:50;;;;;;;7.10;1.88;;;;;;;14.90;92.02;101154.47;6181049;22;20006;-91
2023/06/27 01:47:17;;;;;;;7.20;2.08;;;;;;;14.85;92.95;101147.88;6181143;23;20485;-89
2023/06/27 01:49:44;;;;;;;7.35;2.47;;;;;;;14.70;93.46;101149.69;6181284;22;19997;-90
2023/06/27 01:52:12;;;;;;;7.03;1.60;;;;;;;14.76;93.38;101144.94;6181793;22;20427;-90
2023/06/27 01:54:42;;;;;;;8.45;2.00;;;;;;;14.87;92.91;101152.03;6181202;22;20002;-90
2023/06/27 01:57:08;;;;;;;7.75;1.90;;;;;;;14.73;93.54;101149.50;6180843;23;20048;-90
2023/06/27 01:59:34;;;;;;;9.00;2.05;;;;;;;14.73;94.29;101146.91;6285410;22;20428;-89
2023/06/27 02:01:59;;;;;;;11.20;2.22;;;;;;;14.79;93.93;101150.88;6181574;23;20011;-89
2023/06/27 02:04:24;;;;;;;9.93;2.58;;;;;;;14.74;94.14;101144.19;6181184;22;20313;-90
2023/06/27 02:06:50;;;;;;;11.10;2.22;;;;;;;14.65;94.48;101149.13;6181434;22;20002;-90
2023/06/27 02:09:15;;;;;;;7.10;1.95;;;;;;;14.59;95.66;101137.38;6181069;23;20005;-89
2023/06/27 02:11:41;;;;;;;9.07;2.13;;;;;;;14.62;96.30;101144.97;6180637;22;20004;-88
2023/06/27 02:14:06;;;;;;;11.52;2.38;;;;;;;14.69;95.52;101137.63;6180713;23;20005;-90
2023/06/27 02:16:32;;;;;;;10.93;2.28;;;;;;;14.75;94.75;101138.09;6181181;23;20335;-90
2023/06/27 02:18:57;;;;;;;7.65;1.55;;;;;;;14.77;94.34;101140.56;6180647;23;20331;-90
2023/06/27 02:21:22;;;;;;;7.43;2.13;;;;;;;14.79;93.72;101133.50;6285192;22;20001;-90
2023/06/27 02:23:48;;;;;;;8.18;2.33;;;;;;;14.82;94.08;101138.50;6181558;22;20001;-90
2023/06/27 02:26:13;;;;;;;6.47;1.80;;;;;;;14.82;93.89;101143.69;6181349;23;20419;-91
2023/06/27 02:28:38;;;;;;;12.13;2.15;;;;;;;14.71;94.44;101138.38;6284447;22;20071;-89
2023/06/27 02:31:04;;;;;;;14.98;2.00;;;;;;;14.73;94.79;101139.13;6181738;22;20498;-90
2023/06/27 02:33:29;;;;;;;8.27;1.80;;;;;;;14.71;94.25;101135.78;6181003;23;20033;-88
2023/06/27 02:35:55;;;;;;;11.43;2.33;;;;;;;14.71;94.49;101139.19;6180875;23;20009;-89
2023/06/27 02:38:20;;;;;;;9.07;2.17;;;;;;;14.72;94.99;101133.06;6180878;23;20447;-89
2023/06/27 02:40:47;;;;;;;13.88;2.55;;;;;;;14.70;94.18;101134.09;6181020;22;20027;-90
2023/06/27 02:43:12;;;;;;;10.23;2.47;;;;;;;14.64;95.26;101129.28;6181343;22;20001;-88
2023/06/27 02:45:37;;;;;;;9.25;2.28;;;;;;;14.63;95.77;101130.22;6180644;23;20352;-88
2023/06/27 02:48:03;;;;;;;13.27;2.15;;;;;;;14.64;95.63;101130.13;6181129;22;20011;-90
2023/06/27 02:50:28;;;;;;;11.88;2.35;;;;;;;14.55;95.65;101131.53;6180997;22;20029;-91
2023/06/27 02:52:54;;;;;;;10.25;2.28;;;;;;;14.57;96.51;101133.22;6180728;23;20001;-90
2023/06/27 02:55:19;;;;;;;5.97;1.70;;;;;;;14.51;96.35;101132.63;6181645;23;20435;-90
2023/06/27 02:57:44;;;;;;;7.85;1.60;;;;;;;14.38;97.70;101134.31;6181068;22;20051;-90
2023/06/27 03:00:10;;;;;;;8.40;2.08;;;;;;;14.38;98.48;101134.31;6284537;22;20016;-90
2023/06/27 03:02:35;;;;;;;11.20;2.03;;;;;;;14.32;98.88;101125.16;6180957;22;20074;-90
2023/06/27 03:05:01;;;;;;;13.40;3.53;;;;;;;14.44;98.21;101118.38;6181202;22;20009;-90
2023/06/27 03:07:26;;;;;;;6.53;2.10;;;;;;;14.43;98.29;101121.88;6180813;23;19997;-89
2023/06/27 03:09:51;;;;;;;9.68;1.70;;;;;;;14.29;98.61;101124.53;6180932;22;20004;-91
2023/06/27 03:12:17;;;;;;;7.72;1.50;;;;;;;14.38;98.37;101123.09;6181203;22;20466;-90
2023/06/27 03:14:42;;;;;;;9.18;2.15;;;;;;;14.38;98.88;101123.09;6180889;23;20001;-90
2023/06/27 03:17:08;;;;;;;6.13;1.73;;;;;;;14.40;99.12;101116.06;6180876;23;20008;-90
2023/06/27 03:19:33;;;;;;;6.43;1.67;;;;;;;14.39;99.30;101120.41;6285281;22;20029;-91
2023/06/27 03:21:59;;;;;;;8.35;1.90;;;;;;;14.36;100.00;101125.78;6181391;22;20005;-89
2023/06/27 03:24:24;;;;;;;13.60;2.60;;;;;;;14.29;100.00;101124.53;6181023;22;20008;-91
2023/06/27 03:26:49;;;;;;;10.90;2.15;;;;;;;14.33;100.00;101120.78;6180898;22;20084;-90
2023/06/27 03:29:15;;;;;;;9.95;2.15;;;;;;;14.34;100.00;101123.31;6180327;23;20001;-91
2023/06/27 03:31:40;;;;;;;8.68;1.80;;;;;;;14.34;100.00;101117.28;6284780;22;20040;-90
2023/06/27 03:34:05;;;;;;;5.60;1.73;;;;;;;14.34;100.00;101106.91;6284335;22;20009;-89
2023/06/27 03:36:34;;;;;;;6.72;2.15;;;;;;;14.37;100.00;101106.69;6181196;22;20032;-90
2023/06/27 03:39:00;;;;;;;10.10;2.17;;;;;;;14.43;100.00;101116.69;6284444;22;20491;-92
2023/06/27 03:41:26;;;;;;;8.10;1.80;;;;;;;14.46;100.00;101113.06;6181017;22;19997;-92
2023/06/27 03:43:52;;;;;;;8.95;2.15;;;;;;;14.39;100.00;101107.44;6180637;23;20005;-91
2023/06/27 03:46:17;;;;;;;7.22;2.05;;;;;;;14.41;100.00;101108.19;6180497;23;20266;-91
2023/06/27 03:48:43;;;;;;;9.27;2.30;;;;;;;14.40;100.00;101116.88;6180427;23;20074;-91
2023/06/27 03:51:08;;;;;;;6.80;1.70;;;;;;;14.34;100.00;101114.69;6284603;22;20009;-91
2023/06/27 03:53:34;;;;;;;8.85;2.30;;;;;;;14.36;100.00;101118.00;6180247;22;19997;-92
2023/06/27 03:56:01;;;;;;;9.30;2.45;;;;;;;14.52;100.00;101113.50;6180583;23;20005;-91
2023/06/27 03:58:27;;;;;;;6.35;2.10;;;;;;;14.49;100.00;101105.09;6283954;22;20013;-91
2023/06/27 04:00:55;;;;;;;8.45;2.42;;;;;;;14.41;100.00;101103.00;6179541;22;20392;-91
2023/06/27 04:03:21;;;;;;;6.38;1.70;;;;;;;14.45;100.00;101109.63;6180691;22;20088;-90
2023/06/27 04:05:47;;;;;;;12.90;3.05;;;;;;;14.45;100.00;101101.00;6180851;22;20450;-91
2023/06/27 04:08:12;;;;;;;8.57;2.33;;;;;;;14.38;100.00;101100.56;6284096;22;20005;-91
2023/06/27 04:10:42;;;;;;;6.80;2.22;;;;;;;14.37;100.00;101106.69;6283891;22;20001;-91
2023/06/27 04:13:08;;;;;;;10.80;2.38;;;;;;;14.41;100.00;101110.78;6283860;22;20005;-92
2023/06/27 04:15:39;;;;;;;11.73;2.47;;;;;;;14.49;100.00;101113.72;6180751;22;20001;-91
2023/06/27 04:18:04;;;;;;;7.63;2.03;;;;;;;14.48;100.00;101114.63;6284067;22;20012;-92
2023/06/27 04:20:30;;;;;;;9.32;1.73;;;;;;;14.39;100.00;101115.22;6180981;22;20306;-92
2023/06/27 04:22:55;;;;;;;12.77;2.97;;;;;;;14.46;100.00;101121.72;6284219;22;20032;-91
2023/06/27 04:25:20;;;;;;;11.85;2.10;;;;;;;14.39;100.00;101115.22;6283926;22;20019;-90
2023/06/27 04:27:46;;;;;;;8.70;2.20;;;;;;;14.33;100.00;101123.38;6283957;22;20313;-88
2023/06/27 04:30:11;;;;;;;8.65;2.15;;;;;;;14.37;100.00;101118.84;6180743;22;20001;-91
2023/06/27 04:32:38;;;;;;;7.60;2.40;;;;;;;14.36;100.00;101120.59;6180077;22;20338;-91
2023/06/27 04:35:04;;;;;;;7.78;2.33;;;;;;;14.33;100.00;101119.03;6180264;23;20001;-91
2023/06/27 04:37:29;;;;;;;11.23;1.85;;;;;;;14.30;100.00;101121.00;6181371;22;20369;-90
2023/06/27 04:39:55;;;;;;;9.45;2.40;;;;;;;14.28;100.00;101117.66;6180571;22;20477;-91
2023/06/27 04:42:20;;;;;;;10.63;2.22;;;;;;;14.39;100.00;101119.56;6180948;23;20100;-91
2023/06/27 04:44:46;;;;;;;12.65;2.30;;;;;;;14.46;100.00;101120.84;6180902;22;20005;-91
2023/06/27 04:47:11;;;;;;;13.10;2.35;;;;;;;14.45;100.00;101114.00;6180478;22;20431;-91
2023/06/27 04:49:36;;;;;;;6.47;1.90;;;;;;;14.46;100.00;101118.25;6283871;22;20029;-91
2023/06/27 04:52:02;;;;;;;8.98;2.30;;;;;;;14.48;100.00;101122.41;6283837;22;20431;-91
2023/06/27 04:54:28;;;;;;;7.53;2.30;;;;;;;14.46;100.00;101124.31;6284054;22;20039;-91
2023/06/27 04:56:53;;;;;;;7.45;2.20;;;;;;;14.46;100.00;101131.25;6180947;22;20005;-92
2023/06/27 04:59:19;;;;;;;6.72;2.00;;;;;;;14.50;100.00;101125.75;6283663;22;20718;-91
2023/06/27 05:01:45;;;;;;;12.50;2.25;;;;;;;14.51;100.00;101130.03;6181082;23;20420;-92
2023/06/27 05:04:10;;;;;;;9.43;3.10;;;;;;;14.65;99.36;101129.19;6182537;22;20073;-92
2023/06/27 05:06:36;;;;;;;7.78;2.50;;;;;;;14.65;98.68;101129.19;6183269;22;20376;-91
2023/06/27 05:09:02;;;;;;;7.20;2.55;;;;;;;14.72;98.60;101130.47;6287108;22;20016;-91
2023/06/27 05:11:28;;;;;;;9.77;2.33;;;;;;;14.74;98.14;101125.19;6183429;23;20005;-90
2023/06/27 05:13:53;;;;;;;11.38;2.70;;;;;;;14.64;98.84;101118.91;6287597;22;20001;-91
2023/06/27 05:16:19;;;;;;;7.82;2.40;;;;;;;14.53;98.94;101130.81;6287234;22;20484;-92
2023/06/27 05:18:45;;;;;;;11.93;2.70;;;;;;;14.63;98.94;101128.47;6183451;22;20024;-91
2023/06/27 05:21:11;;;;;;;7.45;2.10;;;;;;;14.68;100.00;101129.00;6183061;23;20028;-91
2023/06/27 05:23:36;;;;;;;8.80;2.33;;;;;;;14.64;100.00;101129.28;6183167;23;20423;-91
2023/06/27 05:26:02;;;;;;;10.00;3.72;;;;;;;14.55;99.08;101126.34;6183594;23;20001;-91
2023/06/27 05:28:28;;;;;;;9.68;2.63;;;;;;;14.58;99.48;101124.47;6183071;23;20474;-91
2023/06/27 05:30:53;;;;;;;12.20;2.65;;;;;;;14.47;100.00;101110.38;6286372;22;20044;-90
2023/06/27 05:33:18;;;;;;;12.45;2.80;;;;;;;14.45;100.00;101101.84;6286958;22;20005;-91
2023/06/27 05:35:44;;;;;;;10.98;2.78;;;;;;;14.53;100.00;101112.63;6183600;22;20416;-90
2023/06/27 05:38:09;;;;;;;9.48;3.10;;;;;;;14.60;99.48;101104.44;6182716;22;20033;-91
2023/06/27 05:40:34;;;;;;;11.10;2.67;;;;;;;14.55;98.88;101108.16;6183490;22;20005;-91
2023/06/27 05:43:00;;;;;;;7.85;2.95;;;;;;;14.62;98.97;101110.38;6183479;22;20300;-91
2023/06/27 05:45:25;;;;;;;11.07;2.70;;;;;;;14.57;99.30;101108.06;6183034;22;20066;-91
2023/06/27 05:47:51;;;;;;;9.23;2.45;;;;;;;14.68;98.95;101115.16;6181796;23;20070;-92
2023/06/27 05:50:16;;;;;;;8.63;2.53;;;;;;;14.67;99.29;101116.09;6183193;22;20085;-92
2023/06/27 05:52:41;;;;;;;8.00;2.28;;;;;;;14.71;98.76;101121.00;6183295;23;20028;-90
2023/06/27 05:55:07;;;;;;;10.88;2.58;;;;;;;14.69;98.53;101116.84;6287098;22;20008;-91
2023/06/27 05:57:32;;;;;;;9.57;2.50;;;;;;;14.73;98.82;101118.31;6182883;22;20001;-91
2023/06/27 05:59:58;;;;;;;13.18;2.75;;;;;;;14.82;98.76;101119.47;6182638;22;20001;-88
2023/06/27 06:02:23;;;;;;;12.93;2.78;;;;;;;14.95;98.10;101118.59;6182869;23;20002;-90
2023/06/27 06:04:48;;;;;;;7.35;2.20;;;;;;;14.99;98.36;101117.44;6183131;23;20008;-91
2023/06/27 06:07:14;;;;;;;9.50;2.33;;;;;;;15.16;96.38;101118.13;6286899;22;19997;-91
2023/06/27 06:09:39;;;;;;;7.28;1.98;;;;;;;15.13;96.32;101115.72;6182330;23;20033;-91
2023/06/27 06:12:05;;;;;;;9.32;2.30;;;;;;;15.27;94.24;101118.25;6183203;23;20028;-91
2023/06/27 06:14:30;;;;;;;10.77;2.55;;;;;;;15.22;94.17;101120.34;6182366;22;20033;-91
2023/06/27 06:16:56;;;;;;;13.15;2.40;;;;;;;15.24;94.25;101113.25;6180175;23;20102;-91
2023/06/27 06:19:21;;;;;;;9.48;2.58;;;;;;;15.22;94.88;101109.94;6178100;22;20013;-90
2023/06/27 06:21:47;;;;;;;11.20;2.53;;;;;;;15.38;93.34;101102.75;6284844;22;20009;-91
2023/06/27 06:24:14;;;;;;;9.93;2.20;;;;;;;15.50;92.42;101102.88;6284996;22;20009;-90
2023/06/27 06:26:39;;;;;;;7.22;2.40;;;;;;;15.53;92.21;101108.72;6181077;22;20420;-90
2023/06/27 06:29:05;;;;;;;8.98;2.17;;;;;;;15.53;93.08;101105.25;6180439;23;20040;-90
2023/06/27 06:31:31;;;;;;;4.38;1.90;;;;;;;15.55;92.90;101111.19;6284853;22;20001;-89
2023/06/27 06:33:57;;;;;;;9.35;2.22;;;;;;;15.55;93.01;101111.19;6285569;22;20050;-89
2023/06/27 06:36:26;;;;;;;9.20;1.92;;;;;;;15.60;91.96;101109.09;6179505;23;20324;-89
2023/06/27 06:38:51;;;;;;;10.65;2.45;;;;;;;15.57;91.88;101109.31;6179755;23;20005;-89
2023/06/27 06:41:18;;;;;;;6.50;1.55;;;;;;;15.58;91.86;101110.97;6180704;22;20009;-88
2023/06/27 06:43:43;;;;;;;8.73;2.40;;;;;;;15.75;91.04;101115.94;6180456;23;20001;-88
2023/06/27 06:46:09;;;;;;;12.48;2.42;;;;;;;15.82;89.24;101111.94;6284899;22;20005;-92
2023/06/27 06:48:35;;;;;;;13.95;2.42;;;;;;;15.92;87.48;101106.09;6180207;23;20001;-90
2023/06/27 06:51:00;;;;;;;6.55;1.75;;;;;;;15.93;88.56;101105.19;6180574;23;20039;-89
2023/06/27 06:53:26;;;;;;;9.98;2.40;;;;;;;15.90;88.79;101108.84;6179547;23;20051;-89
2023/06/27 06:55:51;;;;;;;10.45;2.17;;;;;;;15.84;88.78;101106.63;6281968;22;20009;-89
2023/06/27 06:58:17;;;;;;;6.70;2.13;;;;;;;15.80;89.18;101110.38;6179040;23;20017;-90
2023/06/27 07:00:42;;;;;;;6.68;1.85;;;;;;;15.80;88.82;101107.78;6283162;22;20008;-90
2023/06/27 07:03:09;;;;;;;6.35;1.85;;;;;;;15.82;89.22;101101.53;6179854;22;20411;-88
2023/06/27 07:05:38;;;;;;;6.15;2.00;;;;;;;15.86;88.92;101099.56;6179305;22;20002;-88
2023/06/27 07:08:04;;;;;;;8.48;1.90;;;;;;;15.97;88.48;101106.63;6179041;22;20090;-90
2023/06/27 07:10:30;;;;;;;12.15;3.47;;;;;;;15.99;88.74;101113.38;6178480;23;20328;-90
2023/06/27 07:12:56;;;;;;;9.48;2.00;;;;;;;16.05;88.26;101115.56;6179392;22;20008;-90
2023/06/27 07:15:23;;;;;;;6.28;1.83;;;;;;;16.16;88.33;101111.38;6179608;22;20483;-90
2023/06/27 07:17:52;;;;;;;6.50;2.00;;;;;;;16.21;86.60;101110.09;6179528;22;20083;-90
2023/06/27 07:20:19;;;;;;;10.43;1.73;;;;;;;16.27;86.82;101120.09;6179561;22;20012;-90
2023/06/27 07:22:45;;;;;;;7.43;2.42;;;;;;;16.36;84.76;101130.81;6283841;22;20009;-91
2023/06/27 07:25:11;;;;;;;13.05;2.25;;;;;;;16.34;86.05;101135.28;6283084;22;20347;-90
2023/06/27 07:27:36;;;;;;;11.45;2.35;;;;;;;16.27;86.19;101127.91;6282472;22;20009;-91
2023/06/27 07:30:02;;;;;;;15.00;2.92;;;;;;;16.45;85.35;101132.75;6282382;22;20088;-89
2023/06/27 07:32:27;;;;;;;14.13;2.50;;;;;;;16.46;85.14;101143.09;6178575;23;20001;-89
2023/06/27 07:34:52;;;;;;;11.00;2.38;;;;;;;16.44;85.72;101141.53;6178868;23;20057;-91
2023/06/27 07:37:18;;;;;;;6.95;1.85;;;;;;;16.47;85.37;101146.53;6178753;23;20005;-90
2023/06/27 07:39:43;;;;;;;9.57;2.13;;;;;;;16.35;87.17;101137.78;6178583;23;20005;-90
2023/06/27 07:42:08;;;;;;;8.25;2.40;;;;;;;16.30;86.71;101128.66;6179330;22;20012;-90
2023/06/27 07:44:35;;;;;;;8.70;2.10;;;;;;;16.37;87.00;101135.09;6179693;23;20021;-89
2023/06/27 07:47:00;;;;;;;8.52;2.03;;;;;;;16.32;87.73;101137.19;6284565;22;20490;-89
2023/06/27 07:49:25;;;;;;;15.23;2.67;;;;;;;16.21;87.60;101136.16;6282859;22;20024;-89
2023/06/27 07:51:51;;;;;;;10.80;2.13;;;;;;;16.20;87.13;101139.72;6283665;22;20324;-89
2023/06/27 07:54:21;;;;;;;9.45;2.10;;;;;;;16.34;87.17;101143.09;6282406;22;20042;-89
2023/06/27 07:56:47;;;;;;;7.55;1.88;;;;;;;16.41;87.44;101141.72;6178669;22;20050;-88
2023/06/27 07:59:13;;;;;;;14.07;3.05;;;;;;;16.39;86.89;101148.84;6179328;22;20449;-89
2023/06/27 08:01:40;;;;;;;10.13;2.60;;;;;;;16.43;86.63;101150.28;6278326;22;20013;-89
2023/06/27 08:04:06;;;;;;;21.02;3.17;;;;;;;16.45;85.71;101144.00;6176729;23;20058;-90
2023/06/27 08:06:32;;;;;;;12.27;2.13;;;;;;;16.44;85.46;101141.53;6177996;23;20009;-89
2023/06/27 08:08:58;;;;;;;12.57;2.50;;;;;;;16.40;86.87;101143.50;6281162;22;20009;-91
2023/06/27 08:11:23;;;;;;;11.07;2.13;;;;;;;16.61;86.56;101143.78;6281269;22;20005;-89
2023/06/27 08:13:49;;;;;;;11.27;2.78;;;;;;;16.77;85.17;101133.06;6281454;22;20009;-89
2023/06/27 08:16:14;;;;;;;5.30;1.95;;;;;;;16.84;83.92;101136.09;6177850;22;20080;-90
2023/06/27 08:18:40;;;;;;;9.15;1.90;;;;;;;16.85;84.08;101141.19;6282026;22;20095;-89
2023/06/27 08:21:05;;;;;;;10.10;2.83;;;;;;;16.72;84.25;101134.34;6177738;22;20076;-89
2023/06/27 08:23:31;;;;;;;9.52;1.85;;;;;;;16.85;84.80;101140.34;6178270;23;20416;-90
2023/06/27 08:25:56;;;;;;;6.35;2.05;;;;;;;16.85;84.31;101146.41;6178474;23;20001;-90
2023/06/27 08:28:22;;;;;;;8.07;2.17;;;;;;;16.86;83.97;101144.63;6178775;23;20001;-89
2023/06/27 08:30:48;;;;;;;7.80;1.95;;;;;;;17.04;82.98;101137.22;6280240;22;20009;-88
2023/06/27 08:33:13;;;;;;;7.25;1.73;;;;;;;17.15;82.31;101133.84;6178417;23;20436;-91
2023/06/27 08:35:39;;;;;;;5.10;1.85;;;;;;;17.37;81.03;101126.06;6178978;23;20008;-88
2023/06/27 08:38:05;;;;;;;15.15;3.60;;;;;;;17.59;80.18;101124.47;6178127;22;20054;-89
2023/06/27 08:40:36;;;;;;;9.98;3.17;;;;;;;17.47;79.11;101123.59;6177976;22;20305;-91
2023/06/27 08:43:04;;;;;;;14.82;1.77;;;;;;;17.36;79.73;101115.75;6282681;22;20026;-89
2023/06/27 08:45:29;;;;;;;8.15;1.85;;;;;;;17.51;79.37;101120.66;6178238;22;19997;-90
2023/06/27 08:47:56;;;;;;;12.38;2.65;;;;;;;17.66;78.66;101123.06;6281653;22;20008;-91
2023/06/27 08:50:22;;;;;;;5.95;1.80;;;;;;;17.87;77.63;101131.84;6179048;22;20194;-89
2023/06/27 08:52:58;;;;;;;9.75;2.13;;;;;;;18.00;76.80;101115.25;6282478;22;19998;-89
2023/06/27 08:55:35;;;;;;;5.13;1.80;;;;;;;17.91;75.83;101129.84;6177018;23;20011;-90
2023/06/27 08:58:06;;;;;;;9.30;2.00;;;;;;;18.24;75.07;101123.78;6173198;22;20108;-91
2023/06/27 09:00:33;;;;;;;7.63;2.28;;;;;;;18.35;74.21;101134.19;6280586;22;20005;-89
2023/06/27 09:02:59;;;;;;;13.57;3.40;;;;;;;18.05;74.57;101126.19;6178208;23;20005;-91
2023/06/27 09:05:24;;;;;;;12.95;2.40;;;;;;;18.20;73.87;101118.91;6282771;22;20130;-90
2023/06/27 09:07:50;;;;;;;19.05;2.15;;;;;;;18.55;72.22;101111.69;6179014;22;20008;-91
2023/06/27 09:10:15;;;;;;;11.48;1.67;;;;;;;18.76;70.81;101114.41;6282252;22;20005;-88
2023/06/27 09:12:45;;;;;;;7.30;1.70;;;;;;;18.98;70.12;101115.25;6174709;22;20039;-89
2023/06/27 09:15:11;;;;;;;10.88;2.03;;;;;;;18.88;68.93;101109.13;6178650;22;20039;-90
2023/06/27 09:17:37;;;;;;;10.02;2.38;;;;;;;18.67;69.89;101107.25;6178339;22;20005;-90
2023/06/27 09:20:05;;;;;;;7.63;1.88;;;;;;;18.83;69.27;101106.06;6281615;22;20436;-89
2023/06/27 09:22:31;;;;;;;8.68;2.17;;;;;;;19.03;68.87;101113.09;6176819;22;20005;-88
2023/06/27 09:25:14;;;;;;;9.63;1.95;;;;;;;19.09;68.29;101106.53;6176964;22;20012;-89
2023/06/27 09:27:40;;;;;;;12.05;1.88;;;;;;;19.23;67.34;101108.81;6177620;23;20122;-91
2023/06/27 09:30:07;;;;;;;10.05;1.70;;;;;;;19.41;67.45;101101.22;6177055;23;20039;-88
2023/06/27 09:32:33;;;;;;;16.30;3.20;;;;;;;19.40;66.33;101105.63;6178026;23;20021;-89
2023/06/27 09:35:03;;;;;;;9.30;2.47;;;;;;;19.41;66.68;101098.59;6177420;22;20047;-89
2023/06/27 09:37:31;;;;;;;9.00;1.83;;;;;;;19.06;66.97;101104.16;6282252;22;20009;-90
2023/06/27 09:39:57;;;;;;;7.22;1.73;;;;;;;18.84;68.10;101108.53;6178796;22;20005;-89
2023/06/27 09:42:22;;;;;;;9.88;2.13;;;;;;;18.62;67.51;101098.97;6179197;22;20005;-90
2023/06/27 09:44:47;;;;;;;10.68;1.95;;;;;;;18.33;69.23;101099.50;6177991;22;20002;-90
2023/06/27 09:47:13;;;;;;;8.10;1.80;;;;;;;18.38;68.67;101092.13;6178230;23;20040;-91
2023/06/27 09:49:43;;;;;;;15.25;2.30;;;;;;;18.48;68.65;101096.63;6178001;23;20005;-91
2023/06/27 09:52:11;;;;;;;10.23;2.58;;;;;;;18.61;68.79;101085.06;6281973;22;20432;-91
2023/06/27 09:54:46;;;;;;;9.13;1.80;;;;;;;18.85;67.99;101091.06;6180238;22;20080;-90
2023/06/27 09:57:21;;;;;;;8.60;2.00;;;;;;;18.86;66.98;101085.72;6179548;22;20009;-91
2023/06/27 09:59:47;;;;;;;9.07;2.17;;;;;;;18.84;67.38;101074.53;6284126;22;20455;-91
2023/06/27 10:02:14;;;;;;;9.57;2.03;;;;;;;19.37;66.37;101078.88;6180313;23;20026;-91
2023/06/27 10:04:40;;;;;;;8.27;2.13;;;;;;;19.45;65.10;101076.44;6180169;22;19997;-88
2023/06/27 10:07:13;;;;;;;7.35;2.22;;;;;;;19.21;65.85;101077.53;6180320;22;20012;-92
2023/06/27 10:09:39;;;;;;;7.10;2.17;;;;;;;19.27;65.45;101072.78;6284266;22;20438;-91
2023/06/27 10:12:07;;;;;;;7.40;1.60;;;;;;;19.31;65.36;101068.91;6179369;22;20004;-91
2023/06/27 10:14:33;;;;;;;7.00;1.77;;;;;;;19.43;64.65;101083.59;6284650;22;20001;-90
2023/06/27 10:17:00;;;;;;;6.35;1.70;;;;;;;19.31;64.77;101076.78;6284010;22;20073;-92
2023/06/27 10:19:26;;;;;;;9.43;2.70;;;;;;;19.05;65.22;101079.78;6180125;22;20032;-92
2023/06/27 10:21:52;;;;;;;7.68;2.15;;;;;;;19.12;65.57;101083.56;6283218;22;20005;-92
2023/06/27 10:24:17;;;;;;;8.98;2.00;;;;;;;18.78;66.83;101064.59;6180657;22;20009;-91
2023/06/27 10:26:50;;;;;;;6.78;1.92;;;;;;;19.21;66.11;101069.69;6180006;22;20012;-91
2023/06/27 10:29:16;;;;;;;8.32;2.38;;;;;;;19.14;66.40;101081.66;6283444;22;20009;-91
2023/06/27 10:31:45;;;;;;;11.10;2.20;;;;;;;19.04;66.70;101091.19;6179863;23;20386;-91
2023/06/27 10:34:21;;;;;;;8.50;2.00;;;;;;;18.88;67.81;101085.59;6284509;22;20009;-93
2023/06/27 10:36:59;;;;;;;10.25;2.15;;;;;;;18.61;68.19;101092.09;6179723;23;20401;-91
2023/06/27 10:39:31;;;;;;;7.60;1.75;;;;;;;18.85;69.31;101078.84;6283972;22;20391;-92
2023/06/27 10:42:04;;;;;;;5.70;1.85;;;;;;;18.89;68.29;101084.63;6283067;22;20006;-91
2023/06/27 10:44:31;;;;;;;9.18;2.10;;;;;;;19.03;67.70;101079.09;6179202;22;20001;-91
2023/06/27 10:47:15;;;;;;;7.68;1.75;;;;;;;19.15;67.68;101085.09;6282678;22;20032;-91
2023/06/27 10:49:45;;;;;;;7.43;1.60;;;;;;;19.20;66.78;101094.22;6178770;22;20009;-89
2023/06/27 10:52:11;;;;;;;5.80;1.70;;;;;;;19.20;66.75;101088.97;6282110;22;20301;-93
2023/06/27 10:54:41;;;;;;;11.43;2.13;;;;;;;19.35;66.25;101081.63;6179155;22;20007;-91
2023/06/27 10:57:07;;;;;;;11.65;2.30;;;;;;;19.70;65.22;101084.84;6179077;23;20431;-92
2023/06/27 10:59:35;;;;;;;11.80;2.45;;;;;;;19.85;64.45;101078.31;6284216;22;20009;-91
2023/06/27 11:02:02;;;;;;;10.18;1.98;;;;;;;20.03;62.90;101081.94;6180275;22;20002;-92
2023/06/27 11:04:40;;;;;;;9.30;1.73;;;;;;;19.78;62.83;101083.25;6284726;22;20432;-92
2023/06/27 11:07:17;;;;;;;8.98;2.13;;;;;;;19.80;62.85;101085.72;6286244;22;20062;-90
2023/06/27 11:09:54;;;;;;;10.63;1.83;;;;;;;19.81;62.77;101082.97;6290822;22;20008;-89
2023/06/27 11:12:21;;;;;;;9.05;2.47;;;;;;;19.95;62.40;101092.25;6180788;23;20009;-90
2023/06/27 11:14:51;;;;;;;5.32;1.40;;;;;;;19.80;62.61;101096.19;6180689;22;20095;-90
2023/06/27 11:17:17;;;;;;;7.43;2.10;;;;;;;19.77;63.03;101094.66;6180654;22;20036;-92
2023/06/27 11:19:43;;;;;;;6.25;1.92;;;;;;;19.69;63.21;101089.28;6180379;22;20001;-91